createdAt,value
2019-03-22T00:00:44.026Z,102923.45
2019-03-22T00:01:46.264Z,102929.41
2019-03-22T00:02:48.455Z,102932.58
2019-03-22T00:03:50.658Z,102931.27
2019-03-22T00:04:52.864Z,102926.62
2019-03-22T00:05:55.079Z,102926.62
2019-03-22T00:06:57.364Z,102924.19
2019-03-22T00:07:59.510Z,102922.89
2019-03-22T00:09:01.843Z,102925.49
2019-03-22T00:10:04.035Z,102937.80
2019-03-22T00:11:06.243Z,102929.78
2019-03-22T00:12:08.477Z,102933.33
2019-03-22T00:13:10.666Z,102932.39
2019-03-22T00:14:12.787Z,102934.63
2019-03-22T00:15:15.005Z,102937.23
2019-03-22T00:16:17.191Z,102935.70
2019-03-22T00:17:19.407Z,102937.61
2019-03-22T00:18:21.647Z,102937.23
2019-03-22T00:19:23.873Z,102931.78
2019-03-22T00:20:26.066Z,102937.00
2019-03-22T00:21:28.282Z,102941.15
2019-03-22T00:22:30.503Z,102942.83
2019-03-22T00:23:32.702Z,102944.83
2019-03-22T00:24:34.834Z,102948.37
2019-03-22T00:25:37.459Z,102947.07
2019-03-22T00:26:39.658Z,102946.73
2019-03-22T00:27:41.863Z,102952.30
2019-03-22T00:28:44.130Z,102949.12
2019-03-22T00:29:46.293Z,102952.66
2019-03-22T00:30:48.486Z,102950.42
2019-03-22T00:31:50.691Z,102947.81
2019-03-22T00:32:54.112Z,102951.16
2019-03-22T00:33:56.430Z,102943.90
2019-03-22T00:34:58.643Z,102945.20
2019-03-22T00:36:00.847Z,102946.51
2019-03-22T00:37:03.419Z,102945.02
2019-03-22T00:38:05.940Z,102948.19
2019-03-22T00:39:08.148Z,102949.48
2019-03-22T00:40:10.365Z,102955.27
2019-03-22T00:41:12.554Z,102963.47
2019-03-22T00:42:14.700Z,102970.92
2019-03-22T00:43:16.906Z,102974.84
2019-03-22T00:44:19.115Z,102972.59
2019-03-22T00:45:21.312Z,102972.59
2019-03-22T00:46:23.514Z,102968.69
2019-03-22T00:47:25.742Z,102969.42
2019-03-22T00:48:27.982Z,102974.47
2019-03-22T00:49:30.154Z,102979.49
2019-03-22T00:50:32.362Z,102981.17
2019-03-22T00:51:34.632Z,102978.92
2019-03-22T00:52:36.852Z,102973.52
2019-03-22T00:53:39.072Z,102977.25
2019-03-22T00:54:41.366Z,102975.38
2019-03-22T00:55:43.761Z,102969.80
2019-03-22T00:56:48.960Z,102975.02
2019-03-22T00:57:51.173Z,102971.84
2019-03-22T00:58:53.395Z,102977.42
2019-03-22T00:59:55.600Z,102977.62
2019-03-22T01:00:57.802Z,102976.32
2019-03-22T01:02:00.017Z,102969.80
2019-03-22T01:03:02.252Z,102966.25
2019-03-22T01:04:04.482Z,102955.81
2019-03-22T01:05:06.694Z,102959.73
2019-03-22T01:06:08.894Z,102957.12
2019-03-22T01:07:11.244Z,102958.42
2019-03-22T01:08:13.432Z,102951.34
2019-03-22T01:09:15.628Z,102955.63
2019-03-22T01:10:17.919Z,102953.95
2019-03-22T01:11:20.124Z,102953.20
2019-03-22T01:12:22.319Z,102962.34
2019-03-22T01:13:24.528Z,102964.38
2019-03-22T01:14:28.302Z,102966.98
2019-03-22T01:15:30.477Z,102972.58
2019-03-22T01:16:32.677Z,102979.67
2019-03-22T01:17:34.909Z,102985.25
2019-03-22T01:18:38.838Z,102994.75
2019-03-22T01:19:41.044Z,102994.75
2019-03-22T01:20:43.237Z,102993.82
2019-03-22T01:21:45.507Z,102993.45
2019-03-22T01:22:47.728Z,102998.67
2019-03-22T01:23:49.922Z,102998.30
2019-03-22T01:24:52.130Z,102998.67
2019-03-22T01:25:54.327Z,103005.56
2019-03-22T01:26:56.526Z,103005.56
2019-03-22T01:27:58.811Z,103007.80
2019-03-22T01:29:01.186Z,103012.45
2019-03-22T01:30:03.390Z,103011.52
2019-03-22T01:31:07.347Z,103012.09
2019-03-22T01:32:09.551Z,103016.73
2019-03-22T01:33:14.146Z,103007.97
2019-03-22T01:34:16.346Z,103007.61
2019-03-22T01:35:18.506Z,103002.39
2019-03-22T01:36:20.716Z,102996.80
2019-03-22T01:37:22.915Z,102998.47
2019-03-22T01:38:25.174Z,103003.69
2019-03-22T01:39:27.376Z,103007.23
2019-03-22T01:40:29.590Z,103007.97
2019-03-22T01:41:31.726Z,103005.00
2019-03-22T01:42:34.044Z,102996.61
2019-03-22T01:43:38.765Z,102997.54
2019-03-22T01:44:40.981Z,102997.17
2019-03-22T01:45:43.189Z,103002.76
2019-03-22T01:46:45.394Z,102997.91
2019-03-22T01:47:47.628Z,103001.82
2019-03-22T01:48:49.838Z,103001.82
2019-03-22T01:49:52.046Z,102995.30
2019-03-22T01:50:54.266Z,102988.78
2019-03-22T01:51:56.478Z,102985.80
2019-03-22T01:52:58.712Z,102982.25
2019-03-22T01:54:00.913Z,102986.54
2019-03-22T01:55:03.171Z,102988.78
2019-03-22T01:56:05.364Z,102992.49
2019-03-22T01:57:07.575Z,102994.00
2019-03-22T01:58:09.836Z,102995.30
2019-03-22T01:59:15.039Z,102993.06
2019-03-22T02:00:17.561Z,102986.91
2019-03-22T02:01:19.761Z,102992.13
2019-03-22T02:02:21.971Z,102985.97
2019-03-22T02:03:24.176Z,102981.69
2019-03-22T02:04:26.373Z,102971.63
2019-03-22T02:05:28.650Z,102969.38
2019-03-22T02:06:30.956Z,102972.93
2019-03-22T02:07:33.212Z,102969.02
2019-03-22T02:08:35.435Z,102967.71
2019-03-22T02:09:37.641Z,102962.49
2019-03-22T02:10:39.853Z,102961.92
2019-03-22T02:11:42.131Z,102961.19
2019-03-22T02:12:45.178Z,102964.36
2019-03-22T02:13:47.436Z,102960.45
2019-03-22T02:14:49.644Z,102962.49
2019-03-22T02:15:51.875Z,102959.52
2019-03-22T02:16:54.051Z,102955.97
2019-03-22T02:17:56.251Z,102959.88
2019-03-22T02:18:58.468Z,102958.58
2019-03-22T02:20:00.677Z,102962.49
2019-03-22T02:21:05.435Z,102967.71
2019-03-22T02:22:07.648Z,102960.25
2019-03-22T02:23:09.853Z,102962.30
2019-03-22T02:24:12.266Z,102958.02
2019-03-22T02:25:14.385Z,102968.28
2019-03-22T02:26:16.587Z,102958.58
2019-03-22T02:27:18.811Z,102960.25
2019-03-22T02:28:20.998Z,102958.58
2019-03-22T02:29:24.797Z,102958.21
2019-03-22T02:30:26.933Z,102950.19
2019-03-22T02:31:29.140Z,102955.77
2019-03-22T02:32:31.330Z,102954.10
2019-03-22T02:33:33.535Z,102948.31
2019-03-22T02:34:35.732Z,102942.73
2019-03-22T02:35:37.952Z,102938.81
2019-03-22T02:36:40.296Z,102943.30
2019-03-22T02:37:42.503Z,102948.31
2019-03-22T02:38:44.725Z,102948.69
2019-03-22T02:39:47.058Z,102956.52
2019-03-22T02:40:49.443Z,102958.75
2019-03-22T02:41:51.644Z,102971.43
2019-03-22T02:42:53.852Z,102967.14
2019-03-22T02:43:56.072Z,102966.95
2019-03-22T02:44:58.271Z,102969.19
2019-03-22T02:46:00.490Z,102968.25
2019-03-22T02:47:05.893Z,102968.45
2019-03-22T02:48:08.094Z,102967.69
2019-03-22T02:49:10.311Z,102966.39
2019-03-22T02:50:18.364Z,102964.34
2019-03-22T02:51:16.375Z,102962.10
2019-03-22T02:52:18.609Z,102967.69
2019-03-22T02:53:20.811Z,102969.56
2019-03-22T02:54:23.028Z,102966.72
2019-03-22T02:55:25.233Z,102966.95
2019-03-22T02:56:27.450Z,102964.70
2019-03-22T02:57:29.640Z,102966.02
2019-03-22T02:58:31.834Z,102961.73
2019-03-22T02:59:34.072Z,102961.16
2019-03-22T03:00:36.264Z,102965.64
2019-03-22T03:01:38.467Z,102962.80
2019-03-22T03:02:40.690Z,102959.49
2019-03-22T03:03:42.948Z,102961.50
2019-03-22T03:04:45.179Z,102957.59
2019-03-22T03:05:47.422Z,102962.10
2019-03-22T03:06:49.621Z,102963.78
2019-03-22T03:07:51.835Z,102958.19
2019-03-22T03:08:54.062Z,102959.49
2019-03-22T03:09:56.532Z,102951.67
2019-03-22T03:10:58.729Z,102948.13
2019-03-22T03:12:00.862Z,102945.52
2019-03-22T03:13:05.143Z,102943.24
2019-03-22T03:14:07.343Z,102944.20
2019-03-22T03:15:09.534Z,102939.70
2019-03-22T03:16:11.932Z,102943.24
2019-03-22T03:17:14.126Z,102945.84
2019-03-22T03:18:16.333Z,102949.76
2019-03-22T03:19:18.484Z,102945.66
2019-03-22T03:20:20.729Z,102947.16
2019-03-22T03:21:23.001Z,102947.16
2019-03-22T03:22:25.205Z,102943.61
2019-03-22T03:23:27.429Z,102941.38
2019-03-22T03:24:29.659Z,102941.00
2019-03-22T03:25:31.858Z,102939.88
2019-03-22T03:26:36.045Z,102940.06
2019-03-22T03:27:37.948Z,102949.56
2019-03-22T03:28:40.128Z,102955.34
2019-03-22T03:29:42.347Z,102955.34
2019-03-22T03:30:44.557Z,102953.48
2019-03-22T03:31:46.776Z,102953.11
2019-03-22T03:32:49.132Z,102947.89
2019-03-22T03:33:51.432Z,102956.66
2019-03-22T03:34:53.601Z,102956.66
2019-03-22T03:35:57.364Z,102966.16
2019-03-22T03:36:59.558Z,102966.16
2019-03-22T03:38:01.747Z,102966.52
2019-03-22T03:39:04.775Z,102963.91
2019-03-22T03:40:06.998Z,102963.55
2019-03-22T03:41:09.213Z,102959.27
2019-03-22T03:42:11.410Z,102963.55
2019-03-22T03:43:13.625Z,102968.02
2019-03-22T03:44:15.823Z,102966.52
2019-03-22T03:45:18.039Z,102964.48
2019-03-22T03:46:22.023Z,102966.16
2019-03-22T03:47:24.225Z,102966.16
2019-03-22T03:48:26.431Z,102958.70
2019-03-22T03:49:28.652Z,102965.22
2019-03-22T03:50:30.855Z,102965.59
2019-03-22T03:51:33.065Z,102960.38
2019-03-22T03:52:35.273Z,102960.38
2019-03-22T03:53:37.465Z,102959.06
2019-03-22T03:54:39.783Z,102957.39
2019-03-22T03:55:41.988Z,102961.67
2019-03-22T03:56:44.187Z,102956.09
2019-03-22T03:57:46.378Z,102960.00
2019-03-22T03:58:52.688Z,102966.52
2019-03-22T03:59:52.473Z,102964.28
2019-03-22T04:00:54.671Z,102963.91
2019-03-22T04:01:56.889Z,102964.66
2019-03-22T04:02:59.249Z,102973.05
2019-03-22T04:04:01.453Z,102969.87
2019-03-22T04:05:03.674Z,102968.56
2019-03-22T04:06:05.979Z,102976.95
2019-03-22T04:07:09.904Z,102974.72
2019-03-22T04:08:12.112Z,102981.61
2019-03-22T04:09:14.324Z,102971.55
2019-03-22T04:10:16.518Z,102978.06
2019-03-22T04:11:18.719Z,102975.09
2019-03-22T04:12:22.931Z,102980.67
2019-03-22T04:13:25.156Z,102985.89
2019-03-22T04:14:27.349Z,102985.89
2019-03-22T04:15:31.585Z,102987.20
2019-03-22T04:16:33.787Z,102985.89
2019-03-22T04:17:36.005Z,102990.73
2019-03-22T04:18:38.201Z,102984.59
2019-03-22T04:19:40.447Z,102993.91
2019-03-22T04:20:45.634Z,102984.95
2019-03-22T04:21:47.840Z,102986.27
2019-03-22T04:22:50.059Z,102981.05
2019-03-22T04:23:52.267Z,102973.22
2019-03-22T04:24:54.495Z,102968.37
2019-03-22T04:25:56.699Z,102977.33
2019-03-22T04:26:58.916Z,102974.52
2019-03-22T04:28:01.127Z,102976.20
2019-03-22T04:29:07.892Z,102975.83
2019-03-22T04:30:07.188Z,102977.50
2019-03-22T04:31:09.384Z,102981.78
2019-03-22T04:32:11.586Z,102976.56
2019-03-22T04:33:13.793Z,102984.22
2019-03-22T04:34:15.979Z,102984.02
2019-03-22T04:35:18.210Z,102983.66
2019-03-22T04:36:20.405Z,102984.59
2019-03-22T04:37:22.587Z,102981.78
2019-03-22T04:38:24.789Z,102982.91
2019-03-22T04:39:26.984Z,102980.11
2019-03-22T04:40:29.225Z,102980.11
2019-03-22T04:41:31.433Z,102977.12
2019-03-22T04:42:33.901Z,102976.20
2019-03-22T04:43:36.145Z,102977.12
2019-03-22T04:44:38.353Z,102976.20
2019-03-22T04:45:40.566Z,102974.52
2019-03-22T04:46:42.780Z,102973.59
2019-03-22T04:47:46.156Z,102973.59
2019-03-22T04:48:48.489Z,102974.89
2019-03-22T04:49:50.694Z,102981.41
2019-03-22T04:50:52.907Z,102975.63
2019-03-22T04:51:55.107Z,102977.50
2019-03-22T04:52:57.307Z,102977.50
2019-03-22T04:53:59.522Z,102980.48
2019-03-22T04:55:01.731Z,102975.63
2019-03-22T04:56:03.956Z,102979.91
2019-03-22T04:57:06.159Z,102976.94
2019-03-22T04:58:08.373Z,102972.65
2019-03-22T04:59:18.869Z,102973.02
2019-03-22T05:00:14.434Z,102970.05
2019-03-22T05:01:16.644Z,102971.91
2019-03-22T05:02:18.850Z,102967.80
2019-03-22T05:03:21.060Z,102970.41
2019-03-22T05:04:23.260Z,102972.09
2019-03-22T05:05:25.491Z,102970.41
2019-03-22T05:06:27.703Z,102970.78
2019-03-22T05:07:29.944Z,102977.30
2019-03-22T05:08:32.155Z,102976.94
2019-03-22T05:09:34.353Z,102976.37
2019-03-22T05:10:36.757Z,102980.28
2019-03-22T05:11:38.955Z,102980.65
2019-03-22T05:12:41.351Z,102978.98
2019-03-22T05:13:43.567Z,102986.06
2019-03-22T05:14:45.871Z,102979.91
2019-03-22T05:15:48.111Z,102982.52
2019-03-22T05:16:50.315Z,102976.37
2019-03-22T05:17:54.161Z,102973.39
2019-03-22T05:18:56.365Z,102978.23
2019-03-22T05:19:58.596Z,102973.39
2019-03-22T05:21:00.797Z,102971.15
2019-03-22T05:22:03.009Z,102970.78
2019-03-22T05:23:05.270Z,102965.00
2019-03-22T05:24:07.431Z,102972.09
2019-03-22T05:25:09.649Z,102976.37
2019-03-22T05:26:11.872Z,102978.98
2019-03-22T05:27:14.093Z,102976.37
2019-03-22T05:28:16.313Z,102979.91
2019-03-22T05:29:29.864Z,102987.73
2019-03-22T05:30:22.375Z,102985.13
2019-03-22T05:31:24.583Z,102985.86
2019-03-22T05:32:26.881Z,102981.95
2019-03-22T05:33:29.093Z,102981.02
2019-03-22T05:34:31.305Z,102974.12
2019-03-22T05:35:36.162Z,102979.34
2019-03-22T05:36:38.389Z,102978.04
2019-03-22T05:37:40.591Z,102977.48
2019-03-22T05:38:42.791Z,102977.11
2019-03-22T05:39:45.001Z,102974.87
2019-03-22T05:40:47.203Z,102978.04
2019-03-22T05:41:51.321Z,102981.58
2019-03-22T05:42:53.275Z,102976.37
2019-03-22T05:43:55.593Z,102976.37
2019-03-22T05:44:57.719Z,102972.83
2019-03-22T05:45:59.937Z,102976.73
2019-03-22T05:47:05.127Z,102977.11
2019-03-22T05:48:07.317Z,102978.41
2019-03-22T05:49:09.436Z,102972.26
2019-03-22T05:50:11.637Z,102975.44
2019-03-22T05:51:13.767Z,102977.11
2019-03-22T05:52:15.981Z,102981.02
2019-03-22T05:53:18.166Z,102981.02
2019-03-22T05:54:20.375Z,102984.56
2019-03-22T05:55:22.581Z,102991.45
2019-03-22T05:56:24.790Z,102994.06
2019-03-22T05:57:27.043Z,102995.00
2019-03-22T05:58:29.274Z,102989.22
2019-03-22T05:59:41.874Z,102996.30
2019-03-22T06:00:36.543Z,102992.76
2019-03-22T06:01:38.765Z,102991.45
2019-03-22T06:02:40.999Z,102987.17
2019-03-22T06:03:43.202Z,102988.84
2019-03-22T06:04:45.407Z,102991.45
2019-03-22T06:05:47.662Z,103001.89
2019-03-22T06:06:49.877Z,103004.50
2019-03-22T06:07:52.030Z,103006.17
2019-03-22T06:08:54.504Z,103011.02
2019-03-22T06:09:56.699Z,103009.71
2019-03-22T06:10:58.902Z,103012.32
2019-03-22T06:12:01.097Z,103008.78
2019-03-22T06:13:03.320Z,103011.02
2019-03-22T06:14:05.534Z,103009.91
2019-03-22T06:15:07.718Z,103010.08
2019-03-22T06:16:12.896Z,103000.22
2019-03-22T06:17:15.121Z,103009.71
2019-03-22T06:18:17.336Z,103007.10
2019-03-22T06:19:19.544Z,103007.10
2019-03-22T06:20:21.739Z,103005.23
2019-03-22T06:21:23.943Z,103008.04
2019-03-22T06:22:26.366Z,103006.17
2019-03-22T06:23:28.575Z,103008.04
2019-03-22T06:24:30.782Z,103005.23
2019-03-22T06:25:32.985Z,103001.32
2019-03-22T06:26:35.192Z,103007.47
2019-03-22T06:27:37.417Z,102998.34
2019-03-22T06:28:40.736Z,103001.89
2019-03-22T06:29:53.648Z,103003.93
2019-03-22T06:30:46.803Z,103004.87
2019-03-22T06:31:49.074Z,103002.26
2019-03-22T06:32:51.296Z,103005.23
2019-03-22T06:33:53.510Z,103006.17
2019-03-22T06:34:55.724Z,103005.23
2019-03-22T06:35:57.918Z,103001.89
2019-03-22T06:37:01.464Z,103001.52
2019-03-22T06:38:03.715Z,103000.58
2019-03-22T06:39:05.916Z,103001.89
2019-03-22T06:40:08.137Z,102994.43
2019-03-22T06:41:10.360Z,103000.95
2019-03-22T06:42:12.552Z,102996.11
2019-03-22T06:43:14.770Z,103000.22
2019-03-22T06:44:16.988Z,102997.04
2019-03-22T06:45:19.192Z,103000.95
2019-03-22T06:46:21.410Z,102999.65
2019-03-22T06:47:23.624Z,102994.43
2019-03-22T06:48:25.832Z,103002.26
2019-03-22T06:49:28.048Z,102997.04
2019-03-22T06:50:30.267Z,102995.73
2019-03-22T06:51:33.672Z,102995.73
2019-03-22T06:52:35.788Z,102998.34
2019-03-22T06:53:38.027Z,102999.28
2019-03-22T06:54:40.241Z,102997.04
2019-03-22T06:55:42.454Z,102997.04
2019-03-22T06:56:44.786Z,102999.28
2019-03-22T06:57:47.016Z,102999.65
2019-03-22T06:58:49.223Z,102997.61
2019-03-22T06:59:51.430Z,103000.58
2019-03-22T07:00:55.431Z,102998.34
2019-03-22T07:01:57.638Z,103003.56
2019-03-22T07:02:59.874Z,103002.82
2019-03-22T07:04:02.079Z,103009.71
2019-03-22T07:05:04.299Z,103000.95
2019-03-22T07:06:06.504Z,103006.73
2019-03-22T07:07:08.712Z,103004.87
2019-03-22T07:08:11.072Z,103009.34
2019-03-22T07:09:13.292Z,103009.71
2019-03-22T07:10:15.485Z,103006.17
2019-03-22T07:11:17.815Z,103007.10
2019-03-22T07:12:20.025Z,103007.10
2019-03-22T07:13:22.230Z,103007.10
2019-03-22T07:14:24.444Z,102999.65
2019-03-22T07:15:26.663Z,102997.04
2019-03-22T07:16:28.873Z,102996.67
2019-03-22T07:17:31.076Z,103001.52
2019-03-22T07:18:33.716Z,102999.28
2019-03-22T07:19:35.968Z,103001.89
2019-03-22T07:20:38.158Z,102992.76
2019-03-22T07:21:40.358Z,102996.67
2019-03-22T07:22:42.556Z,103001.52
2019-03-22T07:23:44.782Z,103003.19
2019-03-22T07:24:46.994Z,103002.82
2019-03-22T07:25:49.188Z,102998.91
2019-03-22T07:26:51.497Z,102992.76
2019-03-22T07:27:53.727Z,102996.67
2019-03-22T07:28:55.927Z,102994.43
2019-03-22T07:30:00.911Z,102993.33
2019-03-22T07:31:03.194Z,102992.02
2019-03-22T07:32:05.397Z,102989.22
2019-03-22T07:33:07.596Z,102991.83
2019-03-22T07:34:09.994Z,102991.45
2019-03-22T07:35:12.190Z,102985.30
2019-03-22T07:36:14.408Z,102987.17
2019-03-22T07:37:16.621Z,102986.23
2019-03-22T07:38:18.839Z,102988.47
2019-03-22T07:39:21.054Z,102986.23
2019-03-22T07:40:23.268Z,102985.50
2019-03-22T07:41:25.479Z,102984.93
2019-03-22T07:42:31.290Z,102985.50
2019-03-22T07:43:35.021Z,102984.56
2019-03-22T07:44:37.242Z,102984.56
2019-03-22T07:45:39.442Z,102978.41
2019-03-22T07:46:41.572Z,102980.08
2019-03-22T07:47:43.783Z,102976.17
2019-03-22T07:48:46.003Z,102977.67
2019-03-22T07:49:49.381Z,102980.08
2019-03-22T07:50:51.549Z,102981.02
2019-03-22T07:51:53.736Z,102983.26
2019-03-22T07:52:55.946Z,102981.58
2019-03-22T07:53:58.168Z,102979.72
2019-03-22T07:55:00.432Z,102984.19
2019-03-22T07:56:02.591Z,102981.02
2019-03-22T07:57:04.800Z,102975.44
2019-03-22T07:58:07.016Z,102970.95
2019-03-22T07:59:09.946Z,102970.22
2019-03-22T08:00:12.286Z,102975.44
2019-03-22T08:01:14.497Z,102973.56
2019-03-22T08:02:16.701Z,102980.28
2019-03-22T08:03:18.899Z,102979.72
2019-03-22T08:04:21.127Z,102980.65
2019-03-22T08:05:23.337Z,102984.56
2019-03-22T08:06:25.641Z,102985.50
2019-03-22T08:07:27.839Z,102990.34
2019-03-22T08:08:30.051Z,102995.56
2019-03-22T08:09:32.287Z,102995.93
2019-03-22T08:10:34.485Z,102995.00
2019-03-22T08:11:38.272Z,102994.62
2019-03-22T08:12:40.500Z,102999.48
2019-03-22T08:13:42.681Z,102990.34
2019-03-22T08:14:44.887Z,102991.65
2019-03-22T08:15:47.093Z,102984.56
2019-03-22T08:16:49.303Z,102984.56
2019-03-22T08:17:51.850Z,102979.34
2019-03-22T08:18:54.049Z,102980.28
2019-03-22T08:19:57.355Z,102978.98
2019-03-22T08:21:05.648Z,102976.00
2019-03-22T08:22:06.822Z,102972.45
2019-03-22T08:23:09.023Z,102969.48
2019-03-22T08:24:11.183Z,102974.12
2019-03-22T08:25:13.503Z,102969.84
2019-03-22T08:26:15.723Z,102972.83
2019-03-22T08:27:17.907Z,102970.78
2019-03-22T08:28:20.041Z,102973.76
2019-03-22T08:29:25.038Z,102972.09
2019-03-22T08:30:27.254Z,102967.80
2019-03-22T08:31:29.477Z,102967.44
2019-03-22T08:32:32.943Z,102968.73
2019-03-22T08:33:36.295Z,102969.67
2019-03-22T08:34:38.527Z,102962.22
2019-03-22T08:35:40.800Z,102959.23
2019-03-22T08:36:43.033Z,102960.55
2019-03-22T08:37:53.076Z,102949.91
2019-03-22T08:38:55.373Z,102949.76
2019-03-22T08:39:57.581Z,102944.78
2019-03-22T08:40:59.833Z,102945.34
2019-03-22T08:42:02.105Z,102950.02
2019-03-22T08:43:04.575Z,102950.03
2019-03-22T08:44:06.809Z,102942.20
2019-03-22T08:45:11.239Z,102938.68
2019-03-22T08:46:12.865Z,102937.00
2019-03-22T08:47:15.174Z,102935.33
2019-03-22T08:48:17.409Z,102930.48
2019-03-22T08:49:19.616Z,102930.48
2019-03-22T08:50:21.799Z,102930.71
2019-03-22T08:51:24.251Z,102926.20
2019-03-22T08:52:26.443Z,102927.73
2019-03-22T08:53:28.637Z,102927.17
2019-03-22T08:54:30.847Z,102921.58
2019-03-22T08:55:33.057Z,102929.04
2019-03-22T08:56:36.258Z,102923.59
2019-03-22T08:57:38.652Z,102925.49
2019-03-22T08:58:40.886Z,102930.11
2019-03-22T08:59:43.089Z,102929.18
2019-03-22T09:00:56.853Z,102933.46
2019-03-22T09:01:49.147Z,102926.38
2019-03-22T09:02:51.337Z,102932.90
2019-03-22T09:03:56.439Z,102927.86
2019-03-22T09:04:58.667Z,102930.47
2019-03-22T09:06:01.049Z,102936.81
2019-03-22T09:07:03.271Z,102936.44
2019-03-22T09:08:05.483Z,102931.59
2019-03-22T09:09:07.693Z,102931.97
2019-03-22T09:10:09.883Z,102929.36
2019-03-22T09:11:12.097Z,102928.42
2019-03-22T09:12:14.336Z,102930.84
2019-03-22T09:13:16.591Z,102930.09
2019-03-22T09:14:18.796Z,102926.55
2019-03-22T09:15:21.133Z,102924.31
2019-03-22T09:16:23.341Z,102928.79
2019-03-22T09:17:25.562Z,102922.27
2019-03-22T09:18:29.447Z,102925.25
2019-03-22T09:19:31.713Z,102927.31
2019-03-22T09:20:33.917Z,102929.41
2019-03-22T09:21:36.113Z,102929.78
2019-03-22T09:22:38.367Z,102925.13
2019-03-22T09:23:40.535Z,102927.92
2019-03-22T09:24:42.783Z,102922.14
2019-03-22T09:25:45.007Z,102922.70
2019-03-22T09:26:48.128Z,102917.48
2019-03-22T09:27:50.405Z,102918.42
2019-03-22T09:28:52.646Z,102914.31
2019-03-22T09:29:54.924Z,102918.42
2019-03-22T09:31:09.440Z,102917.48
2019-03-22T09:32:01.151Z,102909.86
2019-03-22T09:33:03.310Z,102913.40
2019-03-22T09:34:05.521Z,102912.47
2019-03-22T09:35:07.733Z,102911.16
2019-03-22T09:36:09.920Z,102916.38
2019-03-22T09:37:12.142Z,102906.88
2019-03-22T09:38:14.341Z,102910.42
2019-03-22T09:39:16.612Z,102906.50
2019-03-22T09:40:18.795Z,102905.57
2019-03-22T09:41:21.057Z,102903.89
2019-03-22T09:42:24.882Z,102909.68
2019-03-22T09:43:30.013Z,102907.44
2019-03-22T09:44:42.776Z,102910.98
2019-03-22T09:45:36.043Z,102908.37
2019-03-22T09:46:38.229Z,102906.33
2019-03-22T09:47:40.462Z,102899.80
2019-03-22T09:48:42.649Z,102897.94
2019-03-22T09:49:45.082Z,102898.50
2019-03-22T09:50:47.289Z,102889.36
2019-03-22T09:51:49.462Z,102891.98
2019-03-22T09:52:51.658Z,102892.73
2019-03-22T09:53:55.966Z,102893.48
2019-03-22T09:54:57.815Z,102884.91
2019-03-22T09:56:00.043Z,102891.98
2019-03-22T09:57:02.246Z,102884.58
2019-03-22T09:58:04.427Z,102883.05
2019-03-22T09:59:06.658Z,102880.44
2019-03-22T10:00:08.894Z,102884.72
2019-03-22T10:01:23.135Z,102889.75
2019-03-22T10:02:14.944Z,102891.05
2019-03-22T10:03:17.187Z,102888.86
2019-03-22T10:04:19.363Z,102890.73
2019-03-22T10:05:21.595Z,102889.99
2019-03-22T10:06:23.808Z,102884.95
2019-03-22T10:07:26.001Z,102888.64
2019-03-22T10:08:28.230Z,102891.05
2019-03-22T10:09:30.395Z,102884.52
2019-03-22T10:10:32.629Z,102885.27
2019-03-22T10:11:35.067Z,102879.48
2019-03-22T10:12:39.284Z,102878.55
2019-03-22T10:13:41.463Z,102884.13
2019-03-22T10:14:43.689Z,102879.12
2019-03-22T10:15:45.899Z,102884.35
2019-03-22T10:16:48.133Z,102886.77
2019-03-22T10:17:50.408Z,102891.25
2019-03-22T10:18:52.638Z,102890.69
2019-03-22T10:19:54.851Z,102890.69
2019-03-22T10:20:57.036Z,102893.48
2019-03-22T10:21:59.228Z,102890.87
2019-03-22T10:23:01.483Z,102886.96
2019-03-22T10:24:03.882Z,102887.19
2019-03-22T10:25:09.034Z,102886.25
2019-03-22T10:26:11.255Z,102881.74
2019-03-22T10:27:13.492Z,102882.34
2019-03-22T10:28:15.688Z,102872.47
2019-03-22T10:29:17.890Z,102867.81
2019-03-22T10:30:20.124Z,102868.00
2019-03-22T10:31:22.307Z,102870.63
2019-03-22T10:32:24.546Z,102868.19
2019-03-22T10:33:26.829Z,102870.98
2019-03-22T10:34:29.079Z,102871.72
2019-03-22T10:35:31.327Z,102878.81
2019-03-22T10:36:33.494Z,102873.96
2019-03-22T10:37:35.780Z,102878.81
2019-03-22T10:38:38.155Z,102878.25
2019-03-22T10:39:40.425Z,102881.42
2019-03-22T10:40:42.598Z,102876.20
2019-03-22T10:41:44.771Z,102871.72
2019-03-22T10:42:47.129Z,102871.55
2019-03-22T10:43:49.418Z,102860.17
2019-03-22T10:44:51.680Z,102863.16
2019-03-22T10:45:53.923Z,102856.25
2019-03-22T10:46:56.172Z,102855.88
2019-03-22T10:47:58.399Z,102854.20
2019-03-22T10:49:00.603Z,102848.98
2019-03-22T10:50:02.838Z,102850.66
2019-03-22T10:51:05.165Z,102850.47
2019-03-22T10:52:10.144Z,102855.52
2019-03-22T10:53:12.346Z,102860.55
2019-03-22T10:54:17.467Z,102858.50
2019-03-22T10:55:29.861Z,102860.55
2019-03-22T10:56:24.975Z,102858.69
2019-03-22T10:57:27.351Z,102858.69
2019-03-22T10:58:29.569Z,102854.77
2019-03-22T10:59:31.707Z,102853.09
2019-03-22T11:00:33.910Z,102852.16
2019-03-22T11:01:48.256Z,102854.40
2019-03-22T11:02:39.985Z,102846.57
2019-03-22T11:03:42.217Z,102849.55
2019-03-22T11:04:44.403Z,102848.44
2019-03-22T11:05:46.619Z,102843.59
2019-03-22T11:06:48.853Z,102844.89
2019-03-22T11:07:51.056Z,102849.74
2019-03-22T11:08:53.263Z,102846.76
2019-03-22T11:09:55.487Z,102847.70
2019-03-22T11:10:57.737Z,102854.59
2019-03-22T11:11:59.984Z,102848.81
2019-03-22T11:13:02.163Z,102853.66
2019-03-22T11:14:04.391Z,102851.61
2019-03-22T11:15:06.614Z,102855.16
2019-03-22T11:16:08.839Z,102844.34
2019-03-22T11:17:11.063Z,102843.22
2019-03-22T11:18:13.312Z,102845.08
2019-03-22T11:19:16.689Z,102844.34
2019-03-22T11:20:18.914Z,102835.58
2019-03-22T11:21:21.138Z,102830.55
2019-03-22T11:22:23.343Z,102834.84
2019-03-22T11:23:25.565Z,102830.17
2019-03-22T11:24:27.919Z,102831.70
2019-03-22T11:25:30.125Z,102824.58
2019-03-22T11:26:32.316Z,102827.56
2019-03-22T11:27:34.525Z,102821.04
2019-03-22T11:28:36.741Z,102820.30
2019-03-22T11:29:39.113Z,102822.20
2019-03-22T11:30:43.661Z,102825.74
2019-03-22T11:31:45.898Z,102822.91
2019-03-22T11:32:48.102Z,102820.67
2019-03-22T11:33:50.307Z,102817.54
2019-03-22T11:34:52.533Z,102814.37
2019-03-22T11:35:54.731Z,102816.05
2019-03-22T11:36:56.973Z,102810.64
2019-03-22T11:37:59.194Z,102816.61
2019-03-22T11:39:01.407Z,102804.63
2019-03-22T11:40:03.635Z,102807.24
2019-03-22T11:41:05.945Z,102809.52
2019-03-22T11:42:08.155Z,102813.25
2019-03-22T11:43:10.356Z,102806.16
2019-03-22T11:44:12.566Z,102809.14
2019-03-22T11:45:17.514Z,102808.55
2019-03-22T11:46:19.729Z,102805.65
2019-03-22T11:47:21.947Z,102813.25
2019-03-22T11:48:24.149Z,102810.83
2019-03-22T11:49:26.355Z,102809.11
2019-03-22T11:50:29.100Z,102799.03
2019-03-22T11:51:33.169Z,102804.25
2019-03-22T11:52:35.384Z,102799.96